Time;durP1;ratioP1;P1;durP2;ratioP2;P2;SDS_P1;SDS_P2;PMS_P1;PMS_P2;Temp;Humidity;BMP_temperature;BMP_pressure;BME280_temperature;BME280_humidity;BME280_pressure;Samples;Min_cycle;Max_cycle;Signal;HPM_P1;HPM_P2
2023/11/21 05:51:43;;;;;;;29.20;15.20;;;;;;;;;;4196063;23;20498;-82
2023/11/21 05:54:09;;;;;;;26.03;16.50;;;;;;;;;;5015479;28;20451;-84
2023/11/21 05:56:36;;;;;;;31.73;16.63;;;;;;;;;;4973135;28;21087;-83
2023/11/21 05:59:03;;;;;;;33.40;16.20;;;;;;;;;;5008167;28;20460;-84
2023/11/21 06:01:29;;;;;;;28.33;15.30;;;;;;;;;;5012922;28;20487;-85
2023/11/21 06:03:56;;;;;;;28.27;15.10;;;;;;;;;;5011367;28;20486;-84
2023/11/21 06:06:24;;;;;;;33.57;15.77;;;;;;;;;;5022047;28;20490;-85
2023/11/21 06:08:52;;;;;;;30.30;15.00;;;;;;;;;;5016053;28;20459;-82
2023/11/21 06:11:18;;;;;;;29.03;15.20;;;;;;;;;;5012381;28;20455;-87
2023/11/21 06:13:45;;;;;;;26.03;15.60;;;;;;;;;;5015233;28;20467;-85
2023/11/21 06:16:13;;;;;;;28.27;15.07;;;;;;;;;;5021126;28;20478;-86
2023/11/21 06:18:39;;;;;;;27.53;13.80;;;;;;;;;;5011721;28;20455;-84
2023/11/21 06:21:06;;;;;;;32.03;17.07;;;;;;;;;;5018313;28;21107;-86
2023/11/21 06:23:32;;;;;;;32.03;14.77;;;;;;;;;;5014962;28;20461;-86
2023/11/21 06:26:00;;;;;;;29.00;15.77;;;;;;;;;;5016162;28;20479;-85
2023/11/21 06:28:27;;;;;;;27.37;14.20;;;;;;;;;;5013301;28;20451;-84
2023/11/21 06:30:53;;;;;;;31.37;15.07;;;;;;;;;;5015624;28;20452;-82
2023/11/21 06:33:21;;;;;;;24.93;13.50;;;;;;;;;;5015594;28;20443;-80
2023/11/21 06:35:48;;;;;;;31.63;16.70;;;;;;;;;;5019526;28;20840;-81
2023/11/21 06:38:14;;;;;;;33.00;15.30;;;;;;;;;;5007619;28;20498;-81
2023/11/21 06:40:40;;;;;;;28.63;14.57;;;;;;;;;;5013673;28;20493;-83
2023/11/21 06:43:08;;;;;;;29.63;14.83;;;;;;;;;;5023045;28;20491;-81
2023/11/21 06:45:35;;;;;;;30.80;17.23;;;;;;;;;;5007258;28;20459;-81
2023/11/21 06:48:01;;;;;;;27.13;14.37;;;;;;;;;;5018839;28;20451;-81
2023/11/21 06:50:27;;;;;;;38.20;17.63;;;;;;;;;;5016025;28;20498;-81
2023/11/21 06:52:54;;;;;;;27.63;15.20;;;;;;;;;;5021575;28;20475;-81
2023/11/21 06:55:23;;;;;;;37.47;18.13;;;;;;;;;;5011004;28;20460;-81
2023/11/21 06:57:49;;;;;;;31.83;16.13;;;;;;;;;;5006064;28;20482;-81
2023/11/21 07:00:18;;;;;;;31.70;15.50;;;;;;;;;;5019032;28;20478;-81
2023/11/21 07:02:45;;;;;;;30.47;15.53;;;;;;;;;;5013380;28;20505;-83
2023/11/21 07:05:11;;;;;;;27.73;14.73;;;;;;;;;;5005715;28;20483;-83
2023/11/21 07:07:38;;;;;;;33.70;16.63;;;;;;;;;;5003348;28;20888;-83
2023/11/21 07:10:05;;;;;;;27.53;15.83;;;;;;;;;;5012657;28;20506;-83
2023/11/21 07:12:32;;;;;;;35.07;16.50;;;;;;;;;;5013310;28;20543;-79
2023/11/21 07:14:58;;;;;;;29.20;17.10;;;;;;;;;;5014785;28;20481;-79
2023/11/21 07:17:26;;;;;;;34.23;16.93;;;;;;;;;;5012843;28;20525;-79
2023/11/21 07:19:52;;;;;;;35.40;18.23;;;;;;;;;;5011894;28;20482;-78
2023/11/21 07:22:21;;;;;;;31.53;17.50;;;;;;;;;;5009813;28;20490;-79
2023/11/21 07:24:48;;;;;;;37.77;18.00;;;;;;;;;;5004572;28;20456;-79
2023/11/21 07:27:15;;;;;;;37.63;18.10;;;;;;;;;;5002718;28;20472;-79
2023/11/21 07:29:41;;;;;;;41.87;20.00;;;;;;;;;;5017935;28;20474;-79
2023/11/21 07:32:09;;;;;;;36.47;18.37;;;;;;;;;;5011902;28;20443;-79
2023/11/21 07:34:37;;;;;;;33.10;18.47;;;;;;;;;;5013885;28;20498;-79
2023/11/21 07:37:03;;;;;;;40.63;17.63;;;;;;;;;;5013099;28;20891;-79
2023/11/21 07:39:30;;;;;;;38.23;19.17;;;;;;;;;;5004765;28;20452;-79
2023/11/21 07:41:57;;;;;;;37.80;18.83;;;;;;;;;;5002254;28;20537;-79
2023/11/21 07:44:24;;;;;;;34.17;17.50;;;;;;;;;;5008130;28;20462;-79
2023/11/21 07:46:50;;;;;;;37.40;19.10;;;;;;;;;;5016962;28;20482;-79
2023/11/21 07:49:20;;;;;;;30.53;17.07;;;;;;;;;;5017753;28;20457;-79
2023/11/21 07:51:47;;;;;;;37.50;18.20;;;;;;;;;;5021477;28;20478;-79
2023/11/21 07:54:14;;;;;;;30.93;17.53;;;;;;;;;;5010466;28;20534;-79
2023/11/21 07:56:40;;;;;;;35.57;16.57;;;;;;;;;;5015721;28;20481;-79
2023/11/21 07:59:07;;;;;;;30.13;15.53;;;;;;;;;;5017423;28;20582;-79
2023/11/21 08:01:33;;;;;;;36.67;16.60;;;;;;;;;;5021216;28;20558;-79
2023/11/21 08:04:03;;;;;;;37.83;18.43;;;;;;;;;;5013104;28;20548;-82
2023/11/21 08:06:29;;;;;;;36.40;16.57;;;;;;;;;;5018443;28;20455;-82
2023/11/21 08:08:57;;;;;;;37.73;17.90;;;;;;;;;;5014803;28;20816;-82
2023/11/21 08:11:24;;;;;;;35.80;17.40;;;;;;;;;;5022672;28;20510;-82
2023/11/21 08:13:50;;;;;;;33.60;17.37;;;;;;;;;;5003807;28;20578;-82
2023/11/21 08:16:16;;;;;;;40.67;17.10;;;;;;;;;;5000882;28;20518;-79
2023/11/21 08:18:43;;;;;;;37.00;16.63;;;;;;;;;;5005689;28;20523;-79
2023/11/21 08:21:12;;;;;;;39.07;17.20;;;;;;;;;;5008721;28;20574;-82
2023/11/21 08:23:38;;;;;;;33.37;15.77;;;;;;;;;;5012570;28;20494;-82
2023/11/21 08:26:06;;;;;;;31.70;13.93;;;;;;;;;;5017752;28;20482;-82
2023/11/21 08:28:32;;;;;;;25.33;15.10;;;;;;;;;;5006242;28;20503;-87
2023/11/21 08:30:59;;;;;;;29.90;14.73;;;;;;;;;;5004853;28;20463;-88
2023/11/21 08:33:25;;;;;;;25.73;13.67;;;;;;;;;;5007957;28;20570;-88
2023/11/21 08:35:52;;;;;;;30.13;15.27;;;;;;;;;;5003185;28;20467;-86
2023/11/21 08:38:18;;;;;;;25.80;14.30;;;;;;;;;;5005114;28;20487;-87
2023/11/21 08:40:45;;;;;;;29.57;15.47;;;;;;;;;;5002177;28;20462;-87
2023/11/21 08:43:14;;;;;;;29.67;14.73;;;;;;;;;;5012688;28;20865;-87
2023/11/21 08:45:40;;;;;;;30.13;14.33;;;;;;;;;;5006720;28;20471;-87
2023/11/21 08:48:08;;;;;;;27.57;12.63;;;;;;;;;;5012833;28;20456;-87
2023/11/21 08:50:34;;;;;;;21.40;11.23;;;;;;;;;;5010297;28;20473;-87
2023/11/21 08:53:01;;;;;;;18.50;10.83;;;;;;;;;;5003034;28;20479;-87
2023/11/21 08:55:28;;;;;;;20.97;11.13;;;;;;;;;;5002585;28;20524;-88
2023/11/21 08:57:56;;;;;;;18.40;11.03;;;;;;;;;;5001363;28;20470;-87
2023/11/21 09:00:24;;;;;;;18.63;10.37;;;;;;;;;;5009776;28;20599;-87
2023/11/21 09:02:51;;;;;;;17.60;10.20;;;;;;;;;;5005837;28;20590;-87
2023/11/21 09:05:18;;;;;;;21.90;10.47;;;;;;;;;;5004044;28;20459;-85
2023/11/21 09:07:46;;;;;;;20.00;10.57;;;;;;;;;;5008321;28;20928;-84
2023/11/21 09:10:12;;;;;;;21.87;11.00;;;;;;;;;;5010430;28;20563;-86
2023/11/21 09:12:39;;;;;;;14.57;9.17;;;;;;;;;;5016525;28;20454;-86
2023/11/21 09:15:05;;;;;;;19.77;9.40;;;;;;;;;;5009939;28;20483;-87
2023/11/21 09:17:35;;;;;;;15.67;9.63;;;;;;;;;;5010208;28;20541;-87
2023/11/21 09:20:03;;;;;;;17.70;10.50;;;;;;;;;;5015932;28;20463;-87
2023/11/21 09:22:31;;;;;;;15.90;9.23;;;;;;;;;;5013288;28;20506;-87
2023/11/21 09:24:57;;;;;;;18.40;10.87;;;;;;;;;;5015378;28;20491;-86
2023/11/21 09:27:25;;;;;;;18.90;10.27;;;;;;;;;;5015187;28;20523;-87
2023/11/21 09:29:52;;;;;;;21.00;12.33;;;;;;;;;;5017895;28;20470;-87
2023/11/21 09:32:19;;;;;;;16.87;10.37;;;;;;;;;;5005082;28;20451;-87
2023/11/21 09:34:46;;;;;;;17.10;10.70;;;;;;;;;;5014348;28;20467;-87
2023/11/21 09:37:13;;;;;;;14.93;9.50;;;;;;;;;;5010058;28;20491;-86
2023/11/21 09:39:39;;;;;;;18.47;10.47;;;;;;;;;;5002999;28;20479;-86
2023/11/21 09:42:12;;;;;;;18.87;9.87;;;;;;;;;;5003299;28;20511;-88
2023/11/21 09:44:44;;;;;;;16.67;10.60;;;;;;;;;;5002951;28;20472;-86
2023/11/21 09:47:11;;;;;;;19.53;10.33;;;;;;;;;;5003850;28;20947;-87
2023/11/21 09:49:38;;;;;;;23.30;11.57;;;;;;;;;;5005827;28;20471;-87
2023/11/21 09:52:08;;;;;;;15.80;10.10;;;;;;;;;;5002666;28;20519;-85
2023/11/21 09:54:35;;;;;;;17.20;10.20;;;;;;;;;;5002983;28;20485;-87
2023/11/21 09:57:03;;;;;;;16.40;9.60;;;;;;;;;;5007841;28;20494;-88
2023/11/21 09:59:31;;;;;;;19.20;10.17;;;;;;;;;;5013281;28;20546;-86
2023/11/21 10:01:59;;;;;;;15.53;9.77;;;;;;;;;;5009377;28;20494;-86
2023/11/21 10:04:26;;;;;;;14.43;8.93;;;;;;;;;;5011358;28;20890;-86
2023/11/21 10:06:54;;;;;;;14.90;9.23;;;;;;;;;;5004269;28;20491;-87
2023/11/21 10:09:22;;;;;;;13.27;9.17;;;;;;;;;;5002124;28;20487;-86
2023/11/21 10:11:50;;;;;;;15.53;8.80;;;;;;;;;;5000796;28;20494;-87
2023/11/21 10:14:20;;;;;;;13.90;8.60;;;;;;;;;;5009571;28;20447;-86
2023/11/21 10:16:48;;;;;;;16.80;9.80;;;;;;;;;;5011266;28;20499;-86
2023/11/21 10:19:16;;;;;;;17.90;9.67;;;;;;;;;;5015358;28;20467;-85
2023/11/21 10:21:42;;;;;;;13.83;8.40;;;;;;;;;;5015830;28;21328;-87
2023/11/21 10:24:09;;;;;;;13.60;7.90;;;;;;;;;;5009709;28;20457;-86
2023/11/21 10:26:37;;;;;;;11.87;8.43;;;;;;;;;;5006478;28;20489;-87
2023/11/21 10:29:04;;;;;;;9.47;6.57;;;;;;;;;;5002299;28;20466;-85
2023/11/21 10:31:30;;;;;;;12.60;7.43;;;;;;;;;;5002892;28;20460;-87
2023/11/21 10:34:10;;;;;;;11.63;7.90;;;;;;;;;;5005451;28;20507;-85
2023/11/21 10:36:37;;;;;;;11.43;7.03;;;;;;;;;;5006332;28;20731;-87
2023/11/21 10:39:03;;;;;;;9.30;6.40;;;;;;;;;;5008303;28;20451;-87
2023/11/21 10:41:29;;;;;;;10.67;7.40;;;;;;;;;;5014643;28;20484;-86
2023/11/21 10:43:57;;;;;;;11.30;6.70;;;;;;;;;;5013700;28;20581;-86
2023/11/21 10:46:25;;;;;;;16.03;7.13;;;;;;;;;;5005374;28;20960;-87
2023/11/21 10:48:53;;;;;;;8.83;6.60;;;;;;;;;;5005967;28;20464;-87
2023/11/21 10:51:21;;;;;;;10.33;6.53;;;;;;;;;;5012593;28;20506;-84
2023/11/21 10:53:50;;;;;;;11.70;7.00;;;;;;;;;;5001545;28;20448;-85
2023/11/21 10:56:19;;;;;;;12.37;7.90;;;;;;;;;;5002795;28;20481;-86
2023/11/21 10:58:47;;;;;;;12.97;7.63;;;;;;;;;;5010640;28;20462;-86
2023/11/21 11:01:16;;;;;;;11.07;7.07;;;;;;;;;;5009452;28;20456;-85
2023/11/21 11:03:43;;;;;;;11.40;7.27;;;;;;;;;;5006281;28;20915;-86
2023/11/21 11:06:11;;;;;;;13.77;8.60;;;;;;;;;;5001714;28;20483;-87
2023/11/21 11:08:37;;;;;;;10.57;7.50;;;;;;;;;;5004733;28;20451;-86
2023/11/21 11:11:05;;;;;;;12.73;8.50;;;;;;;;;;5001030;28;20483;-85
2023/11/21 11:13:31;;;;;;;11.93;7.40;;;;;;;;;;5000494;28;20483;-85
2023/11/21 11:15:59;;;;;;;11.80;8.43;;;;;;;;;;5000645;28;20893;-86
2023/11/21 11:18:27;;;;;;;15.70;8.70;;;;;;;;;;5009031;28;20830;-87
2023/11/21 11:20:54;;;;;;;12.70;7.90;;;;;;;;;;5008938;28;20455;-87
2023/11/21 11:23:38;;;;;;;10.83;7.57;;;;;;;;;;5005476;28;20495;-87
2023/11/21 11:26:13;;;;;;;10.40;7.73;;;;;;;;;;5001405;28;20494;-86
2023/11/21 11:28:45;;;;;;;10.90;7.10;;;;;;;;;;5011551;28;20934;-85
2023/11/21 11:31:16;;;;;;;9.40;7.40;;;;;;;;;;5008955;28;20569;-85
2023/11/21 11:33:46;;;;;;;13.70;8.70;;;;;;;;;;5010715;28;20485;-85
2023/11/21 11:36:16;;;;;;;17.53;9.43;;;;;;;;;;5003898;28;20468;-86
2023/11/21 11:38:49;;;;;;;21.13;12.60;;;;;;;;;;5012769;28;20510;-87
2023/11/21 11:41:24;;;;;;;20.13;9.87;;;;;;;;;;5012906;28;20490;-87
2023/11/21 11:43:51;;;;;;;17.57;10.47;;;;;;;;;;5008375;28;20577;-85
2023/11/21 11:46:17;;;;;;;17.70;11.50;;;;;;;;;;5003290;28;21005;-84
2023/11/21 11:48:46;;;;;;;18.10;9.87;;;;;;;;;;5006125;28;20452;-87
2023/11/21 11:51:14;;;;;;;14.40;10.63;;;;;;;;;;5009497;28;20507;-86
2023/11/21 11:53:41;;;;;;;17.33;11.40;;;;;;;;;;5003359;28;20463;-86
2023/11/21 11:56:35;;;;;;;16.03;9.10;;;;;;;;;;5011596;28;20470;-85
2023/11/21 11:59:03;;;;;;;14.47;10.27;;;;;;;;;;4957356;28;20522;-86
2023/11/21 12:01:30;;;;;;;18.43;10.40;;;;;;;;;;5002111;28;20462;-85
2023/11/21 12:04:22;;;;;;;14.70;10.70;;;;;;;;;;5000173;28;20535;-86
2023/11/21 12:06:51;;;;;;;15.43;10.00;;;;;;;;;;5002132;28;20458;-87
2023/11/21 12:09:19;;;;;;;14.33;10.20;;;;;;;;;;5015036;28;20497;-87
2023/11/21 12:11:46;;;;;;;13.90;9.20;;;;;;;;;;5002745;28;20463;-87
2023/11/21 12:14:13;;;;;;;12.70;9.70;;;;;;;;;;5005062;28;21019;-86
2023/11/21 12:16:40;;;;;;;13.37;10.07;;;;;;;;;;5002806;28;20464;-86
2023/11/21 12:19:06;;;;;;;14.27;9.67;;;;;;;;;;5010017;28;20482;-87
2023/11/21 12:21:33;;;;;;;14.13;9.30;;;;;;;;;;5004731;28;20937;-88
2023/11/21 12:24:01;;;;;;;13.37;10.80;;;;;;;;;;5006591;28;21014;-87
2023/11/21 12:26:28;;;;;;;13.07;10.23;;;;;;;;;;4999475;28;20459;-86
2023/11/21 12:28:55;;;;;;;13.40;10.10;;;;;;;;;;5007365;28;20478;-87
2023/11/21 12:31:22;;;;;;;15.00;10.40;;;;;;;;;;4999711;28;20459;-87
2023/11/21 12:33:48;;;;;;;13.30;9.07;;;;;;;;;;5012942;28;20516;-86
2023/11/21 12:36:14;;;;;;;12.30;10.10;;;;;;;;;;5011028;28;20483;-86
2023/11/21 12:38:42;;;;;;;13.83;10.20;;;;;;;;;;5009618;28;20455;-86
2023/11/21 12:41:10;;;;;;;11.53;8.60;;;;;;;;;;5003183;28;20468;-85
2023/11/21 12:43:38;;;;;;;12.80;10.50;;;;;;;;;;5008630;28;20872;-84
2023/11/21 12:46:09;;;;;;;11.70;9.00;;;;;;;;;;5010030;28;20503;-86
2023/11/21 12:48:37;;;;;;;11.57;9.20;;;;;;;;;;5009991;28;20458;-87
2023/11/21 12:51:05;;;;;;;15.43;11.77;;;;;;;;;;5009579;28;20494;-87
2023/11/21 12:53:36;;;;;;;12.47;9.90;;;;;;;;;;5010118;28;20479;-87
2023/11/21 12:56:03;;;;;;;13.83;9.87;;;;;;;;;;5008343;28;20466;-85
2023/11/21 12:58:33;;;;;;;11.23;9.63;;;;;;;;;;5006015;28;20820;-87
2023/11/21 13:01:00;;;;;;;12.53;9.40;;;;;;;;;;5004625;28;21194;-85
2023/11/21 13:03:26;;;;;;;10.70;9.00;;;;;;;;;;5007848;28;20491;-87
2023/11/21 13:05:54;;;;;;;12.20;9.87;;;;;;;;;;5002458;28;20482;-87
2023/11/21 13:08:22;;;;;;;9.97;8.97;;;;;;;;;;5013213;28;20459;-85
2023/11/21 13:10:50;;;;;;;10.03;8.20;;;;;;;;;;5005809;28;20469;-85
2023/11/21 13:13:17;;;;;;;10.47;7.77;;;;;;;;;;5010647;28;20522;-85
2023/11/21 13:15:49;;;;;;;11.43;8.70;;;;;;;;;;5010945;28;20521;-87
2023/11/21 13:18:16;;;;;;;8.50;7.60;;;;;;;;;;5019401;28;20491;-86
2023/11/21 13:20:43;;;;;;;11.03;8.40;;;;;;;;;;5013679;28;20455;-86
2023/11/21 13:23:11;;;;;;;8.33;7.43;;;;;;;;;;5008577;28;20568;-86
2023/11/21 13:25:40;;;;;;;9.03;8.10;;;;;;;;;;5006219;28;20546;-86
2023/11/21 13:28:07;;;;;;;12.57;9.47;;;;;;;;;;5004735;28;20455;-86
2023/11/21 13:30:34;;;;;;;9.73;8.73;;;;;;;;;;5008769;28;20452;-85
2023/11/21 13:33:02;;;;;;;8.70;7.43;;;;;;;;;;5003755;28;20494;-86
2023/11/21 13:35:34;;;;;;;10.13;8.37;;;;;;;;;;5004480;28;20474;-87
2023/11/21 13:38:05;;;;;;;10.47;7.53;;;;;;;;;;5016124;28;20465;-87
2023/11/21 13:40:34;;;;;;;9.43;8.50;;;;;;;;;;5008446;28;20539;-87
2023/11/21 13:43:04;;;;;;;9.70;8.67;;;;;;;;;;5003341;28;20487;-86
2023/11/21 13:45:30;;;;;;;9.00;7.87;;;;;;;;;;5013958;28;20493;-85
2023/11/21 13:47:58;;;;;;;10.20;7.13;;;;;;;;;;5012368;28;20459;-86
2023/11/21 13:50:32;;;;;;;9.80;8.17;;;;;;;;;;5006320;28;20479;-85
2023/11/21 13:53:03;;;;;;;10.03;9.03;;;;;;;;;;5003582;28;20460;-87
2023/11/21 13:55:29;;;;;;;9.93;8.90;;;;;;;;;;5011704;28;20462;-86
2023/11/21 13:57:55;;;;;;;10.40;8.90;;;;;;;;;;5003187;28;20499;-86
2023/11/21 14:03:18;;;;;;;10.50;8.90;;;;;;;;;;4992533;28;20475;-86
2023/11/21 14:05:50;;;;;;;9.83;8.10;;;;;;;;;;5012453;28;20466;-85
2023/11/21 14:08:19;;;;;;;8.97;8.10;;;;;;;;;;5002256;28;20460;-86
2023/11/21 14:10:50;;;;;;;8.70;7.73;;;;;;;;;;5009734;28;20460;-87
2023/11/21 14:13:17;;;;;;;9.47;8.10;;;;;;;;;;5002877;28;20486;-86
2023/11/21 14:15:45;;;;;;;8.10;6.80;;;;;;;;;;5011089;28;20464;-86
2023/11/21 14:18:14;;;;;;;8.97;8.03;;;;;;;;;;5009539;28;20498;-85
2023/11/21 14:20:41;;;;;;;8.40;7.57;;;;;;;;;;5010033;28;20456;-86
2023/11/21 14:23:10;;;;;;;7.77;6.97;;;;;;;;;;5016801;28;20900;-86
2023/11/21 14:25:37;;;;;;;10.50;8.50;;;;;;;;;;5009353;28;21091;-86
2023/11/21 14:28:05;;;;;;;8.60;7.67;;;;;;;;;;5004052;28;20462;-86
2023/11/21 14:30:34;;;;;;;8.67;7.23;;;;;;;;;;5004873;28;20521;-87
2023/11/21 14:33:01;;;;;;;8.73;7.80;;;;;;;;;;5006278;28;20469;-86
2023/11/21 14:35:30;;;;;;;10.20;7.40;;;;;;;;;;5000706;28;20982;-85
2023/11/21 14:37:58;;;;;;;10.30;7.00;;;;;;;;;;5003570;28;20456;-87
2023/11/21 14:40:29;;;;;;;8.07;7.27;;;;;;;;;;5008864;28;20525;-85
2023/11/21 14:42:57;;;;;;;9.37;6.50;;;;;;;;;;5003948;28;20548;-86
2023/11/21 14:45:26;;;;;;;10.77;7.50;;;;;;;;;;5015769;28;21141;-87
2023/11/21 14:48:00;;;;;;;8.20;7.37;;;;;;;;;;5006868;28;20466;-87
2023/11/21 14:53:40;;;;;;;8.33;7.53;;;;;;;;;;4972770;28;20479;-85
2023/11/21 14:56:07;;;;;;;8.80;7.90;;;;;;;;;;5005591;28;20451;-86
2023/11/21 14:58:35;;;;;;;9.53;7.00;;;;;;;;;;5005980;28;20483;-86
2023/11/21 15:01:00;;;;;;;11.97;7.63;;;;;;;;;;5001610;28;20730;-85
2023/11/21 15:06:30;;;;;;;11.77;8.83;;;;;;;;;;5006473;28;20205;-86
2023/11/21 15:09:28;;;;;;;9.07;8.00;;;;;;;;;;5009249;28;20492;-85
2023/11/21 15:11:47;;;;;;;10.57;8.37;;;;;;;;;;5009238;28;20499;-88
2023/11/21 15:14:20;;;;;;;9.87;7.93;;;;;;;;;;5007169;28;20463;-86
2023/11/21 15:16:50;;;;;;;8.83;7.63;;;;;;;;;;5007144;28;20447;-87
2023/11/21 15:19:18;;;;;;;9.00;7.50;;;;;;;;;;5006531;28;20522;-86
2023/11/21 15:21:45;;;;;;;9.60;8.37;;;;;;;;;;5016871;28;20463;-88
2023/11/21 15:24:12;;;;;;;11.40;8.30;;;;;;;;;;5010848;28;20493;-85
2023/11/21 15:26:39;;;;;;;10.27;9.27;;;;;;;;;;5008768;28;20505;-84
2023/11/21 15:29:07;;;;;;;11.60;9.00;;;;;;;;;;5002039;28;20528;-86
2023/11/21 15:31:34;;;;;;;11.57;8.30;;;;;;;;;;5000174;28;20543;-85
2023/11/21 15:34:00;;;;;;;10.70;7.40;;;;;;;;;;4999793;28;20487;-85
2023/11/21 15:36:27;;;;;;;8.43;7.63;;;;;;;;;;5000135;28;20492;-85
2023/11/21 15:38:54;;;;;;;9.93;8.10;;;;;;;;;;5006732;28;20483;-86
2023/11/21 15:41:21;;;;;;;10.13;8.00;;;;;;;;;;5013197;28;20462;-87
2023/11/21 15:43:48;;;;;;;9.10;7.37;;;;;;;;;;5016272;28;20478;-86
2023/11/21 15:46:16;;;;;;;9.47;7.63;;;;;;;;;;5006772;28;21011;-87
2023/11/21 15:48:49;;;;;;;8.17;6.60;;;;;;;;;;5005119;28;20519;-87
2023/11/21 15:51:16;;;;;;;7.83;6.60;;;;;;;;;;5006337;28;20491;-88
2023/11/21 15:53:43;;;;;;;8.10;7.30;;;;;;;;;;5006795;28;20455;-84
2023/11/21 15:56:12;;;;;;;11.00;7.70;;;;;;;;;;5016756;28;20506;-83
2023/11/21 15:58:40;;;;;;;8.30;7.00;;;;;;;;;;5004193;28;20545;-85
2023/11/21 16:01:08;;;;;;;8.47;7.57;;;;;;;;;;5015698;28;20471;-82
2023/11/21 16:03:36;;;;;;;9.17;7.90;;;;;;;;;;5008175;28;20795;-83
2023/11/21 16:06:03;;;;;;;9.07;7.43;;;;;;;;;;5014429;28;20554;-82
2023/11/21 16:08:29;;;;;;;8.53;7.17;;;;;;;;;;5021662;28;20423;-83
2023/11/21 16:10:56;;;;;;;7.97;7.17;;;;;;;;;;5006705;28;20455;-83
2023/11/21 16:13:22;;;;;;;9.20;8.30;;;;;;;;;;5020725;28;20469;-82
2023/11/21 16:15:49;;;;;;;10.20;8.47;;;;;;;;;;5012348;28;20466;-85
2023/11/21 16:18:15;;;;;;;7.77;6.80;;;;;;;;;;5005114;28;20945;-86
2023/11/21 16:20:43;;;;;;;9.30;7.47;;;;;;;;;;5007537;28;20527;-85
2023/11/21 16:23:10;;;;;;;9.53;8.20;;;;;;;;;;5008593;28;20462;-84
2023/11/21 16:25:36;;;;;;;11.93;8.47;;;;;;;;;;5008631;28;20522;-83
2023/11/21 16:28:03;;;;;;;8.43;6.97;;;;;;;;;;5017984;28;20450;-81
2023/11/21 16:30:30;;;;;;;11.93;7.90;;;;;;;;;;5011734;28;20463;-81
2023/11/21 16:32:57;;;;;;;11.17;8.20;;;;;;;;;;5012889;28;20530;-84
2023/11/21 16:35:23;;;;;;;8.10;6.53;;;;;;;;;;5015328;28;20462;-83
2023/11/21 16:37:52;;;;;;;9.77;7.97;;;;;;;;;;5009308;28;20503;-83
2023/11/21 16:40:19;;;;;;;11.73;8.30;;;;;;;;;;5012888;28;20464;-83
2023/11/21 16:42:45;;;;;;;8.50;7.43;;;;;;;;;;5018470;28;20477;-83
2023/11/21 16:45:12;;;;;;;10.83;7.80;;;;;;;;;;5009479;28;20511;-83
2023/11/21 16:47:39;;;;;;;10.13;8.40;;;;;;;;;;5013012;28;20566;-88
2023/11/21 16:50:06;;;;;;;10.50;8.50;;;;;;;;;;5011255;28;20864;-84
2023/11/21 16:52:33;;;;;;;9.53;7.97;;;;;;;;;;5017000;28;20478;-86
2023/11/21 16:55:01;;;;;;;9.13;7.63;;;;;;;;;;5010148;28;20454;-86
2023/11/21 16:57:27;;;;;;;9.90;8.30;;;;;;;;;;5015698;28;20486;-85
2023/11/21 16:59:54;;;;;;;9.07;7.93;;;;;;;;;;5013262;28;20458;-83
2023/11/21 17:02:21;;;;;;;9.90;8.00;;;;;;;;;;5024059;28;20462;-82
2023/11/21 17:04:49;;;;;;;10.30;8.03;;;;;;;;;;5013612;28;20524;-84
2023/11/21 17:07:16;;;;;;;9.80;7.37;;;;;;;;;;5016885;28;20469;-84
2023/11/21 17:09:43;;;;;;;9.50;8.60;;;;;;;;;;5015488;28;20448;-85
2023/11/21 17:12:10;;;;;;;8.40;7.70;;;;;;;;;;5014016;28;20502;-85
2023/11/21 17:14:39;;;;;;;8.83;7.83;;;;;;;;;;5009993;28;20483;-87
2023/11/21 17:17:08;;;;;;;9.43;8.47;;;;;;;;;;5005956;28;20463;-86
2023/11/21 17:19:34;;;;;;;11.00;7.63;;;;;;;;;;5009412;28;20458;-87
2023/11/21 17:22:01;;;;;;;8.43;7.10;;;;;;;;;;5009813;28;20462;-87
2023/11/21 17:24:27;;;;;;;10.07;7.60;;;;;;;;;;5013106;28;20491;-88
2023/11/21 17:26:54;;;;;;;8.70;7.70;;;;;;;;;;5033800;28;20483;-87
2023/11/21 17:29:22;;;;;;;8.30;7.50;;;;;;;;;;5021475;28;20493;-88
2023/11/21 17:31:48;;;;;;;11.27;8.40;;;;;;;;;;5008903;28;20666;-87
2023/11/21 17:34:18;;;;;;;9.33;7.53;;;;;;;;;;5018940;28;21300;-88
2023/11/21 17:36:45;;;;;;;12.50;7.90;;;;;;;;;;5016405;28;20461;-89
2023/11/21 17:39:13;;;;;;;8.57;7.20;;;;;;;;;;5017884;28;20458;-85
2023/11/21 17:41:39;;;;;;;8.70;7.77;;;;;;;;;;5016105;28;20470;-88
2023/11/21 17:44:06;;;;;;;8.03;6.70;;;;;;;;;;5010057;28;20488;-87
2023/11/21 17:46:34;;;;;;;7.60;6.70;;;;;;;;;;5023618;28;20441;-88
2023/11/21 17:49:01;;;;;;;9.27;7.73;;;;;;;;;;5017043;28;20455;-88
2023/11/21 17:51:27;;;;;;;8.40;7.30;;;;;;;;;;5007049;28;20487;-87
2023/11/21 17:54:00;;;;;;;8.20;6.27;;;;;;;;;;5015991;28;20452;-85
2023/11/21 17:56:27;;;;;;;8.80;7.30;;;;;;;;;;5016681;28;20523;-85
2023/11/21 17:58:56;;;;;;;8.37;7.07;;;;;;;;;;5014852;28;20455;-87
2023/11/21 18:01:22;;;;;;;9.70;7.40;;;;;;;;;;5011855;28;20809;-86
2023/11/21 18:03:50;;;;;;;11.53;7.23;;;;;;;;;;5012951;28;20479;-87
2023/11/21 18:06:19;;;;;;;7.77;7.07;;;;;;;;;;5013923;28;20522;-88
2023/11/21 18:08:45;;;;;;;7.70;7.00;;;;;;;;;;5015395;28;20440;-89
2023/11/21 18:11:12;;;;;;;8.83;7.93;;;;;;;;;;5012005;28;20431;-86
2023/11/21 18:13:38;;;;;;;8.90;7.90;;;;;;;;;;5009250;28;20454;-85
2023/11/21 18:16:05;;;;;;;9.50;7.47;;;;;;;;;;5015863;28;20932;-85
2023/11/21 18:18:32;;;;;;;12.03;8.03;;;;;;;;;;5012478;28;20455;-87
2023/11/21 18:21:01;;;;;;;9.70;8.07;;;;;;;;;;5014463;28;20461;-86
2023/11/21 18:23:28;;;;;;;9.47;7.63;;;;;;;;;;5010926;28;20466;-86
2023/11/21 18:25:55;;;;;;;8.50;6.60;;;;;;;;;;5015664;28;20593;-87
2023/11/21 18:28:24;;;;;;;9.63;7.70;;;;;;;;;;5012601;28;20463;-87
2023/11/21 18:30:50;;;;;;;10.10;7.53;;;;;;;;;;5018366;28;20595;-87
2023/11/21 18:33:19;;;;;;;8.07;7.13;;;;;;;;;;5023738;28;20459;-86
2023/11/21 18:35:46;;;;;;;10.37;7.10;;;;;;;;;;5009176;28;20479;-87
2023/11/21 18:38:13;;;;;;;7.70;7.00;;;;;;;;;;5007239;28;20456;-86
2023/11/21 18:40:40;;;;;;;9.40;8.07;;;;;;;;;;5021599;28;20775;-85
2023/11/21 18:43:06;;;;;;;9.83;6.93;;;;;;;;;;5019918;28;20542;-85
2023/11/21 18:45:36;;;;;;;9.43;6.73;;;;;;;;;;5022794;28;20487;-86
2023/11/21 18:48:03;;;;;;;7.40;6.53;;;;;;;;;;5010891;28;20447;-85
2023/11/21 18:50:30;;;;;;;6.80;6.10;;;;;;;;;;5011399;28;20467;-86
2023/11/21 18:52:58;;;;;;;6.80;6.20;;;;;;;;;;5013558;28;20531;-86
2023/11/21 18:55:26;;;;;;;8.40;7.60;;;;;;;;;;5013965;28;20456;-83
2023/11/21 18:57:54;;;;;;;7.73;6.77;;;;;;;;;;5016693;28;20455;-84
2023/11/21 19:00:22;;;;;;;7.33;5.93;;;;;;;;;;5008178;28;20522;-85
2023/11/21 19:02:48;;;;;;;6.30;5.80;;;;;;;;;;5013459;28;21316;-82
2023/11/21 19:05:15;;;;;;;8.60;7.10;;;;;;;;;;5009950;28;20514;-81
2023/11/21 19:07:41;;;;;;;7.27;6.57;;;;;;;;;;5016883;28;20466;-82
2023/11/21 19:10:09;;;;;;;6.93;6.23;;;;;;;;;;5018145;28;21112;-82
2023/11/21 19:12:39;;;;;;;6.57;5.97;;;;;;;;;;5006930;28;20459;-82
2023/11/21 19:15:08;;;;;;;7.03;6.37;;;;;;;;;;5009005;28;20466;-83
2023/11/21 19:17:34;;;;;;;6.67;6.07;;;;;;;;;;5008363;28;21023;-83
2023/11/21 19:20:01;;;;;;;6.93;5.93;;;;;;;;;;5004111;28;20489;-83
2023/11/21 19:22:27;;;;;;;6.10;5.50;;;;;;;;;;5009001;28;20560;-82
2023/11/21 19:24:53;;;;;;;7.10;6.40;;;;;;;;;;5010379;28;20498;-83
2023/11/21 19:27:20;;;;;;;7.67;6.90;;;;;;;;;;5013304;28;20496;-84
2023/11/21 19:49:19;;;;;;;7.40;6.50;;;;;;;;;;4998925;23;20499;-81
2023/11/21 19:51:46;;;;;;;7.40;6.10;;;;;;;;;;4986712;28;20486;-81
2023/11/21 19:54:12;;;;;;;7.77;6.97;;;;;;;;;;4993639;28;20542;-80
2023/11/21 19:56:40;;;;;;;7.17;6.47;;;;;;;;;;4952947;28;20487;-83
2023/11/21 19:59:07;;;;;;;7.67;6.80;;;;;;;;;;4992806;28;20470;-83
2023/11/21 20:01:34;;;;;;;7.43;6.73;;;;;;;;;;4987814;28;20561;-84
2023/11/21 20:04:01;;;;;;;7.83;7.03;;;;;;;;;;4994800;28;20938;-80
2023/11/21 20:06:29;;;;;;;8.80;6.90;;;;;;;;;;4997771;28;20600;-79
2023/11/21 20:08:56;;;;;;;8.73;6.90;;;;;;;;;;4996612;28;20480;-79
2023/11/21 20:11:23;;;;;;;7.70;7.00;;;;;;;;;;4991826;28;20509;-79
2023/11/21 20:13:49;;;;;;;8.90;6.50;;;;;;;;;;4984805;28;20479;-80
2023/11/21 20:16:18;;;;;;;7.97;6.70;;;;;;;;;;4994871;28;20490;-79
2023/11/21 20:18:44;;;;;;;8.97;6.93;;;;;;;;;;4993212;28;20519;-79
2023/11/21 20:21:11;;;;;;;9.63;7.30;;;;;;;;;;4996726;28;20459;-80
2023/11/21 20:23:39;;;;;;;8.67;7.33;;;;;;;;;;4996074;28;20483;-80
2023/11/21 20:26:05;;;;;;;9.83;7.23;;;;;;;;;;4985898;28;20563;-80
2023/11/21 20:28:32;;;;;;;8.53;7.73;;;;;;;;;;4986442;28;20453;-78
2023/11/21 20:30:58;;;;;;;8.50;7.60;;;;;;;;;;4993246;28;20463;-79
2023/11/21 20:33:28;;;;;;;7.20;6.50;;;;;;;;;;4992282;28;20456;-78
2023/11/21 20:35:55;;;;;;;7.87;7.17;;;;;;;;;;4981858;28;20472;-78
2023/11/21 20:38:22;;;;;;;8.30;7.30;;;;;;;;;;4992411;28;20502;-79
2023/11/21 20:40:50;;;;;;;9.17;6.50;;;;;;;;;;4989758;28;20986;-80
2023/11/21 20:43:16;;;;;;;9.57;6.77;;;;;;;;;;4993371;28;20479;-79
2023/11/21 20:45:43;;;;;;;7.87;7.17;;;;;;;;;;4988964;28;20516;-81
2023/11/21 20:48:10;;;;;;;14.57;8.23;;;;;;;;;;5001051;28;20491;-80
2023/11/21 20:50:37;;;;;;;11.20;7.73;;;;;;;;;;4990360;28;20494;-82
2023/11/21 20:53:07;;;;;;;11.13;6.87;;;;;;;;;;4995257;28;20498;-83